createdAt,value
2018-06-03T00:01:09.810Z,47.42
2018-06-03T00:03:36.206Z,47.41
2018-06-03T00:06:02.611Z,47.31
2018-06-03T00:10:59.955Z,47.47
2018-06-03T00:13:26.418Z,47.48
2018-06-03T00:15:52.790Z,47.31
2018-06-03T00:18:19.191Z,47.38
2018-06-03T00:20:45.641Z,47.31
2018-06-03T00:23:12.054Z,47.36
2018-06-03T00:25:38.532Z,47.35
2018-06-03T00:28:04.976Z,47.42
2018-06-03T00:30:31.370Z,47.31
2018-06-03T00:32:57.750Z,47.21
2018-06-03T00:35:24.186Z,47.22
2018-06-03T00:37:50.558Z,47.33
2018-06-03T00:40:16.987Z,47.38
2018-06-03T00:42:44.879Z,47.27
2018-06-03T00:45:11.359Z,47.28
2018-06-03T00:47:37.827Z,47.31
2018-06-03T00:50:04.244Z,47.19
2018-06-03T00:52:30.700Z,47.27
2018-06-03T00:54:57.129Z,47.12
2018-06-03T00:57:23.602Z,47.33
2018-06-03T00:59:50.035Z,47.23
2018-06-03T01:02:16.431Z,47.19
2018-06-03T01:04:44.698Z,47.11
2018-06-03T01:07:11.289Z,47.19
2018-06-03T01:09:37.845Z,47.23
2018-06-03T01:12:04.221Z,47.08
2018-06-03T01:14:30.779Z,47.18
2018-06-03T01:16:57.215Z,47.17
2018-06-03T01:19:23.638Z,47.07
2018-06-03T01:21:50.060Z,47.13
2018-06-03T01:24:16.440Z,47.22
2018-06-03T01:26:42.921Z,47.19
2018-06-03T01:29:09.309Z,47.06
2018-06-03T01:31:35.729Z,47.16
2018-06-03T01:34:02.183Z,46.89
2018-06-03T01:36:28.567Z,47.10
2018-06-03T01:38:55.108Z,47.17
2018-06-03T01:41:21.495Z,46.97
2018-06-03T01:43:47.961Z,47.12
2018-06-03T01:46:14.371Z,46.93
2018-06-03T01:48:40.754Z,47.02
2018-06-03T01:51:07.246Z,47.02
2018-06-03T01:53:33.728Z,47.02
2018-06-03T01:56:00.128Z,47.00
2018-06-03T01:58:26.490Z,46.95
2018-06-03T02:00:53.032Z,46.75
2018-06-03T02:03:19.411Z,46.86
2018-06-03T02:05:45.818Z,46.96
2018-06-03T02:08:12.201Z,46.96
2018-06-03T02:10:38.582Z,46.92
2018-06-03T02:13:04.962Z,46.97
2018-06-03T02:15:31.359Z,46.85
2018-06-03T02:17:57.794Z,46.99
2018-06-03T02:20:26.215Z,46.96
2018-06-03T02:22:52.651Z,46.98
2018-06-03T02:25:19.043Z,46.99
2018-06-03T02:27:45.421Z,46.95
2018-06-03T02:30:11.801Z,46.93
2018-06-03T02:32:38.167Z,46.95
2018-06-03T02:35:04.543Z,46.99
2018-06-03T02:37:30.956Z,46.84
2018-06-03T02:39:57.365Z,46.73
2018-06-03T02:42:23.753Z,46.86
2018-06-03T02:44:50.152Z,46.75
2018-06-03T02:47:16.583Z,46.86
2018-06-03T02:49:42.978Z,46.86
2018-06-03T02:52:09.396Z,46.80
2018-06-03T02:54:36.883Z,46.74
2018-06-03T02:57:03.293Z,46.73
2018-06-03T02:59:29.665Z,46.81
2018-06-03T03:01:56.121Z,46.63
2018-06-03T03:04:22.506Z,46.71
2018-06-03T03:06:48.904Z,46.73
2018-06-03T03:09:15.370Z,46.79
2018-06-03T03:11:41.742Z,46.61
2018-06-03T03:14:08.154Z,46.71
2018-06-03T03:16:34.523Z,46.60
2018-06-03T03:19:00.897Z,46.40
2018-06-03T03:21:27.262Z,46.57
2018-06-03T03:23:53.690Z,46.39
2018-06-03T03:26:20.059Z,46.54
2018-06-03T03:28:46.426Z,46.30
2018-06-03T03:31:12.827Z,46.32
2018-06-03T03:33:39.241Z,46.24
2018-06-03T03:36:05.599Z,46.35
2018-06-03T03:38:31.967Z,46.03
2018-06-03T03:40:58.377Z,46.09
2018-06-03T03:43:24.746Z,45.89
2018-06-03T03:45:51.108Z,45.80
2018-06-03T03:48:17.515Z,45.70
2018-06-03T03:50:43.898Z,45.59
2018-06-03T03:53:10.319Z,45.46
2018-06-03T03:55:36.690Z,45.48
2018-06-03T03:58:03.084Z,45.37
2018-06-03T04:00:29.506Z,45.18
2018-06-03T04:02:55.912Z,45.25
2018-06-03T04:05:22.275Z,45.21
2018-06-03T04:07:48.661Z,45.08
2018-06-03T04:10:15.115Z,45.01
2018-06-03T04:12:41.492Z,44.94
2018-06-03T04:15:07.903Z,45.09
2018-06-03T04:17:34.260Z,44.94
2018-06-03T04:20:00.653Z,44.85
2018-06-03T04:22:27.052Z,44.82
2018-06-03T04:24:53.451Z,44.76
2018-06-03T04:27:19.891Z,44.79
2018-06-03T04:29:46.255Z,44.85
2018-06-03T04:32:12.614Z,44.86
2018-06-03T04:34:38.979Z,44.58
2018-06-03T04:37:05.395Z,44.70
2018-06-03T04:39:31.775Z,44.46
2018-06-03T04:41:58.140Z,44.61
2018-06-03T04:44:24.521Z,44.34
2018-06-03T04:46:50.907Z,44.32
2018-06-03T04:49:17.325Z,44.32
2018-06-03T04:51:43.695Z,44.10
2018-06-03T04:54:10.102Z,44.03
2018-06-03T04:56:36.509Z,44.07
2018-06-03T04:59:02.928Z,44.06
2018-06-03T05:01:29.349Z,43.77
2018-06-03T05:03:55.780Z,43.84
2018-06-03T05:06:22.161Z,43.70
2018-06-03T05:08:48.526Z,43.64
2018-06-03T05:11:14.894Z,43.67
2018-06-03T05:13:41.266Z,43.73
2018-06-03T05:16:07.676Z,43.81
2018-06-03T05:18:34.053Z,43.63
2018-06-03T05:21:00.487Z,43.41
2018-06-03T05:23:26.894Z,43.52
2018-06-03T05:25:53.371Z,43.49
2018-06-03T05:28:19.733Z,43.26
2018-06-03T05:30:46.118Z,43.22
2018-06-03T05:33:12.500Z,43.20
2018-06-03T05:35:38.918Z,43.05
2018-06-03T05:38:05.308Z,43.06
2018-06-03T05:40:31.676Z,43.03
2018-06-03T05:42:58.042Z,43.03
2018-06-03T05:45:24.399Z,42.93
2018-06-03T05:47:50.803Z,42.87
2018-06-03T05:50:17.205Z,42.72
2018-06-03T05:52:43.562Z,42.81
2018-06-03T05:55:09.982Z,42.71
2018-06-03T05:57:36.346Z,42.89
2018-06-03T06:00:02.751Z,42.84
2018-06-03T06:02:29.121Z,42.74
2018-06-03T06:04:55.573Z,42.62
2018-06-03T06:07:21.945Z,42.65
2018-06-03T06:09:48.311Z,42.65
2018-06-03T06:12:14.789Z,42.55
2018-06-03T06:14:41.180Z,42.56
2018-06-03T06:17:07.548Z,42.52
2018-06-03T06:19:33.918Z,42.63
2018-06-03T06:22:00.291Z,42.32
2018-06-03T06:24:26.673Z,42.60
2018-06-03T06:26:53.121Z,42.50
2018-06-03T06:29:19.552Z,42.50
2018-06-03T06:31:46.024Z,42.55
2018-06-03T06:34:12.421Z,42.34
2018-06-03T06:36:38.790Z,42.36
2018-06-03T06:39:05.168Z,42.42
2018-06-03T06:41:31.561Z,42.49
2018-06-03T06:43:58.004Z,42.36
2018-06-03T06:46:24.406Z,42.61
2018-06-03T06:48:50.785Z,42.32
2018-06-03T06:51:17.159Z,42.33
2018-06-03T06:53:43.543Z,42.30
2018-06-03T06:56:09.982Z,42.27
2018-06-03T06:58:36.408Z,42.33
2018-06-03T07:01:02.818Z,42.37
2018-06-03T07:03:29.194Z,42.23
2018-06-03T07:05:55.609Z,42.39
2018-06-03T07:08:21.981Z,42.29
2018-06-03T07:10:48.408Z,42.32
2018-06-03T07:13:14.864Z,42.16
2018-06-03T07:15:41.314Z,42.23
2018-06-03T07:18:07.640Z,42.28
2018-06-03T07:20:34.009Z,42.37
2018-06-03T07:23:00.404Z,42.42
2018-06-03T07:25:26.756Z,42.35
2018-06-03T07:27:53.107Z,42.36
2018-06-03T07:30:19.447Z,42.30
2018-06-03T07:32:45.777Z,42.35
2018-06-03T07:35:12.110Z,42.40
2018-06-03T07:37:38.505Z,42.38
2018-06-03T07:40:04.890Z,42.34
2018-06-03T07:42:31.261Z,42.40
2018-06-03T07:44:57.579Z,42.29
2018-06-03T07:47:23.975Z,42.41
2018-06-03T07:49:50.327Z,42.52
2018-06-03T07:52:16.652Z,42.44
2018-06-03T07:54:42.991Z,42.43
2018-06-03T07:57:09.356Z,42.40
2018-06-03T07:59:35.688Z,42.46
2018-06-03T08:02:02.085Z,42.51
2018-06-03T08:04:28.421Z,42.47
2018-06-03T08:06:54.841Z,42.42
2018-06-03T08:09:21.165Z,42.50
2018-06-03T08:11:47.510Z,42.54
2018-06-03T08:14:13.895Z,42.60
2018-06-03T08:16:40.231Z,42.62
2018-06-03T08:19:06.593Z,42.63
2018-06-03T08:21:32.970Z,42.58
2018-06-03T08:23:59.354Z,42.58
2018-06-03T08:26:25.707Z,42.63
2018-06-03T08:28:52.032Z,42.62
2018-06-03T08:31:18.369Z,42.56
2018-06-03T08:33:44.753Z,42.59
2018-06-03T08:36:11.089Z,42.66
2018-06-03T08:38:37.463Z,42.63
2018-06-03T08:41:03.806Z,42.64
2018-06-03T08:43:30.240Z,42.65
2018-06-03T08:45:56.695Z,42.61
2018-06-03T08:48:23.125Z,42.63
2018-06-03T08:50:49.443Z,42.61
2018-06-03T08:53:15.761Z,42.61
2018-06-03T08:55:42.114Z,42.65
2018-06-03T08:58:08.461Z,42.67
2018-06-03T09:00:34.892Z,42.66
2018-06-03T09:03:01.189Z,42.61
2018-06-03T09:05:27.530Z,42.64
2018-06-03T09:07:53.920Z,42.58
2018-06-03T09:10:20.254Z,42.55
2018-06-03T09:12:46.580Z,42.57
2018-06-03T09:15:12.940Z,42.55
2018-06-03T09:17:39.303Z,42.57
2018-06-03T09:20:05.676Z,42.61
2018-06-03T09:22:32.005Z,42.56
2018-06-03T09:24:58.336Z,42.60
2018-06-03T09:27:24.680Z,42.55
2018-06-03T09:29:51.020Z,42.57
2018-06-03T09:32:17.359Z,42.57
2018-06-03T09:34:43.807Z,42.52
2018-06-03T09:37:10.181Z,42.47
2018-06-03T09:39:36.530Z,42.43
2018-06-03T09:42:02.875Z,42.47
2018-06-03T09:44:29.342Z,42.42
2018-06-03T09:46:55.673Z,42.53
2018-06-03T09:49:22.000Z,42.32
2018-06-03T09:51:48.325Z,42.32
2018-06-03T09:54:14.655Z,42.27
2018-06-03T09:56:40.992Z,42.18
2018-06-03T09:59:07.308Z,42.54
2018-06-03T10:01:33.629Z,42.21
2018-06-03T10:03:59.975Z,42.29
2018-06-03T10:06:26.364Z,41.94
2018-06-03T10:08:52.696Z,41.94
2018-06-03T10:11:19.016Z,41.97
2018-06-03T10:13:45.462Z,41.84
2018-06-03T10:16:11.803Z,41.78
2018-06-03T10:18:38.163Z,41.62
2018-06-03T10:21:04.502Z,41.58
2018-06-03T10:23:30.844Z,41.53
2018-06-03T10:25:57.177Z,41.73
2018-06-03T10:28:23.514Z,41.56
2018-06-03T10:30:49.839Z,41.62
2018-06-03T10:33:16.181Z,41.51
2018-06-03T10:35:42.548Z,41.52
2018-06-03T10:38:12.461Z,41.47
2018-06-03T10:40:39.852Z,41.39
2018-06-03T10:43:06.188Z,41.35
2018-06-03T10:45:32.507Z,41.28
2018-06-03T10:47:58.877Z,41.20
2018-06-03T10:50:25.257Z,41.11
2018-06-03T10:52:51.582Z,41.09
2018-06-03T10:55:17.976Z,41.00
2018-06-03T10:57:44.301Z,41.05
2018-06-03T11:00:10.668Z,40.87
2018-06-03T11:02:37.223Z,40.74
2018-06-03T11:05:03.626Z,40.68
2018-06-03T11:07:29.971Z,40.59
2018-06-03T11:09:56.360Z,40.50
2018-06-03T11:12:22.742Z,40.46
2018-06-03T11:14:49.071Z,40.39
2018-06-03T11:17:15.648Z,40.36
2018-06-03T11:19:41.980Z,40.33
2018-06-03T11:22:09.029Z,40.24
2018-06-03T11:24:35.446Z,40.19
2018-06-03T11:27:01.817Z,40.18
2018-06-03T11:29:28.159Z,40.13
2018-06-03T11:31:54.492Z,40.06
2018-06-03T11:34:20.831Z,40.02
2018-06-03T11:36:47.225Z,39.99
2018-06-03T11:39:13.552Z,40.04
2018-06-03T11:41:39.872Z,39.93
2018-06-03T11:44:06.272Z,39.93
2018-06-03T11:46:32.626Z,39.84
2018-06-03T11:48:59.067Z,39.68
2018-06-03T11:51:25.406Z,39.62
2018-06-03T11:53:51.829Z,39.54
2018-06-03T11:56:18.156Z,39.47
2018-06-03T11:58:44.590Z,39.46
2018-06-03T12:01:11.194Z,39.27
2018-06-03T12:03:37.516Z,39.14
2018-06-03T12:06:03.856Z,38.98
2018-06-03T12:08:30.239Z,38.99
2018-06-03T12:10:56.654Z,38.87
2018-06-03T12:13:23.044Z,38.83
2018-06-03T12:15:49.420Z,38.69
2018-06-03T12:18:15.830Z,38.61
2018-06-03T12:20:42.215Z,38.55
2018-06-03T12:23:08.557Z,38.53
2018-06-03T12:25:34.888Z,38.49
2018-06-03T12:28:01.289Z,38.50
2018-06-03T12:30:27.620Z,38.50
2018-06-03T12:32:53.950Z,38.35
2018-06-03T12:35:20.370Z,38.38
2018-06-03T12:37:46.777Z,38.26
2018-06-03T12:40:13.172Z,37.98
2018-06-03T12:42:39.657Z,37.90
2018-06-03T12:45:07.045Z,38.04
2018-06-03T12:47:33.427Z,37.93
2018-06-03T12:49:59.919Z,37.90
2018-06-03T12:52:26.278Z,37.94
2018-06-03T12:54:53.578Z,37.87
2018-06-03T12:57:19.900Z,37.87
2018-06-03T12:59:46.222Z,37.78
2018-06-03T13:02:12.569Z,37.75
2018-06-03T13:04:38.956Z,37.95
2018-06-03T13:07:05.404Z,37.75
2018-06-03T13:09:31.740Z,37.76
2018-06-03T13:11:58.276Z,37.69
2018-06-03T13:14:24.709Z,37.71
2018-06-03T13:16:51.093Z,37.73
2018-06-03T13:19:17.525Z,37.79
2018-06-03T13:21:43.916Z,37.74
2018-06-03T13:24:10.397Z,37.75
2018-06-03T13:26:36.765Z,37.76
2018-06-03T13:29:03.133Z,37.76
2018-06-03T13:31:29.512Z,37.80
2018-06-03T13:33:56.176Z,37.95
2018-06-03T13:36:22.549Z,37.76
2018-06-03T13:38:48.892Z,37.71
2018-06-03T13:41:15.291Z,37.73
2018-06-03T13:43:41.869Z,37.66
2018-06-03T13:46:08.200Z,37.62
2018-06-03T13:48:34.553Z,37.59
2018-06-03T13:51:01.685Z,37.52
2018-06-03T13:53:28.026Z,37.51
2018-06-03T13:55:54.372Z,37.43
2018-06-03T13:58:20.710Z,37.40
2018-06-03T14:00:47.141Z,37.35
2018-06-03T14:03:13.514Z,37.30
2018-06-03T14:05:39.873Z,37.46
2018-06-03T14:08:08.404Z,37.22
2018-06-03T14:10:34.878Z,37.22
2018-06-03T14:13:01.260Z,37.20
2018-06-03T14:15:27.603Z,37.24
2018-06-03T14:17:53.962Z,37.24
2018-06-03T14:20:20.348Z,37.36
2018-06-03T14:22:46.704Z,37.32
2018-06-03T14:25:13.053Z,37.38
2018-06-03T14:27:39.508Z,37.43
2018-06-03T14:30:05.927Z,37.58
2018-06-03T14:32:34.246Z,37.67
2018-06-03T14:35:00.670Z,37.67
2018-06-03T14:37:27.570Z,37.75
2018-06-03T14:39:54.004Z,37.75
2018-06-03T14:42:20.449Z,37.79
2018-06-03T14:44:46.911Z,37.80
2018-06-03T14:47:13.296Z,37.77
2018-06-03T14:49:39.704Z,37.80
2018-06-03T14:52:06.522Z,37.83
2018-06-03T14:54:32.893Z,37.87
2018-06-03T14:56:59.472Z,37.90
2018-06-03T14:59:25.792Z,38.02
2018-06-03T15:01:52.291Z,38.02
2018-06-03T15:04:18.662Z,38.11
2018-06-03T15:06:45.137Z,38.20
2018-06-03T15:09:11.542Z,38.21
2018-06-03T15:11:37.885Z,38.33
2018-06-03T15:14:04.221Z,38.37
2018-06-03T15:16:30.718Z,38.48
2018-06-03T15:18:59.087Z,38.58
2018-06-03T15:21:25.640Z,38.69
2018-06-03T15:23:52.085Z,38.66
2018-06-03T15:26:18.474Z,38.75
2018-06-03T15:28:44.857Z,38.81
2018-06-03T15:31:11.347Z,38.90
2018-06-03T15:33:38.806Z,38.88
2018-06-03T15:36:05.174Z,38.95
2018-06-03T15:38:31.552Z,39.03
2018-06-03T15:40:57.911Z,39.14
2018-06-03T15:43:24.312Z,39.24
2018-06-03T15:45:51.510Z,39.25
2018-06-03T15:48:18.022Z,39.30
2018-06-03T15:50:44.426Z,39.35
2018-06-03T15:53:10.772Z,39.46
2018-06-03T15:55:37.114Z,39.52
2018-06-03T15:58:03.505Z,39.68
2018-06-03T16:00:29.912Z,39.77
2018-06-03T16:02:56.407Z,39.85
2018-06-03T16:05:22.877Z,39.98
2018-06-03T16:07:49.265Z,40.04
2018-06-03T16:10:15.679Z,40.07
2018-06-03T16:12:42.024Z,40.22
2018-06-03T16:15:08.400Z,40.23
2018-06-03T16:17:34.839Z,40.26
2018-06-03T16:20:01.169Z,40.36
2018-06-03T16:22:27.559Z,40.47
2018-06-03T16:24:54.340Z,40.57
2018-06-03T16:27:20.800Z,40.60
2018-06-03T16:29:47.159Z,40.63
2018-06-03T16:32:13.547Z,40.70
2018-06-03T16:34:39.888Z,40.84
2018-06-03T16:37:06.790Z,40.85
2018-06-03T16:39:33.209Z,41.00
2018-06-03T16:41:59.806Z,41.07
2018-06-03T16:44:26.565Z,41.04
2018-06-03T16:46:53.030Z,41.10
2018-06-03T16:49:19.405Z,41.20
2018-06-03T16:51:45.741Z,41.25
2018-06-03T16:54:12.119Z,41.30
2018-06-03T16:56:38.485Z,41.42
2018-06-03T16:59:04.908Z,41.41
2018-06-03T17:01:31.291Z,41.45
2018-06-03T17:03:57.661Z,41.53
2018-06-03T17:06:24.140Z,41.53
2018-06-03T17:08:50.553Z,41.56
2018-06-03T17:11:16.935Z,41.70
2018-06-03T17:13:43.286Z,41.69
2018-06-03T17:16:09.662Z,41.77
2018-06-03T17:18:36.001Z,41.90
2018-06-03T17:21:02.392Z,42.00
2018-06-03T17:23:28.754Z,42.07
2018-06-03T17:25:55.076Z,42.17
2018-06-03T17:28:21.581Z,42.32
2018-06-03T17:30:48.128Z,42.43
2018-06-03T17:33:14.532Z,42.46
2018-06-03T17:35:40.938Z,42.50
2018-06-03T17:38:07.369Z,42.58
2018-06-03T17:40:33.769Z,42.61
2018-06-03T17:43:00.220Z,42.74
2018-06-03T17:45:26.667Z,42.73
2018-06-03T17:47:53.129Z,42.82
2018-06-03T17:50:19.500Z,42.88
2018-06-03T17:52:46.420Z,43.02
2018-06-03T17:55:12.749Z,43.16
2018-06-03T17:57:39.396Z,43.00
2018-06-03T18:00:05.778Z,43.12
2018-06-03T18:02:32.092Z,43.29
2018-06-03T18:04:58.521Z,43.36
2018-06-03T18:07:24.858Z,43.38
2018-06-03T18:09:51.270Z,43.44
2018-06-03T18:12:17.619Z,43.52
2018-06-03T18:14:45.257Z,43.60
2018-06-03T18:17:11.790Z,43.61
2018-06-03T18:19:38.147Z,43.76
2018-06-03T18:22:04.540Z,43.93
2018-06-03T18:24:30.944Z,43.87
2018-06-03T18:26:57.325Z,43.98
2018-06-03T18:29:23.684Z,44.00
2018-06-03T18:31:50.091Z,44.08
2018-06-03T18:34:16.424Z,44.25
2018-06-03T18:36:42.789Z,44.36
2018-06-03T18:39:09.161Z,44.40
2018-06-03T18:41:35.703Z,44.29
2018-06-03T18:44:02.046Z,44.39
2018-06-03T18:46:28.589Z,44.41
2018-06-03T18:51:27.446Z,44.49
2018-06-03T18:53:53.780Z,44.53
2018-06-03T18:56:20.229Z,44.55
2018-06-03T18:58:46.605Z,44.59
2018-06-03T19:01:12.938Z,44.61
2018-06-03T19:03:39.286Z,44.67
2018-06-03T19:06:06.440Z,44.71
2018-06-03T19:08:32.866Z,44.73
2018-06-03T19:10:59.192Z,44.80
2018-06-03T19:13:25.732Z,44.97
2018-06-03T19:15:52.113Z,44.93
2018-06-03T19:18:18.585Z,44.87
2018-06-03T19:20:44.985Z,45.08
2018-06-03T19:23:11.335Z,45.13
2018-06-03T19:25:37.712Z,45.07
2018-06-03T19:28:04.082Z,45.12
2018-06-03T19:30:30.691Z,45.16
2018-06-03T19:32:57.242Z,45.19
2018-06-03T19:35:23.566Z,45.16
2018-06-03T19:37:50.021Z,45.19
2018-06-03T19:40:16.346Z,45.22
2018-06-03T19:42:42.919Z,45.30
2018-06-03T19:45:09.315Z,45.40
2018-06-03T19:47:35.953Z,45.48
2018-06-03T19:50:02.305Z,45.41
2018-06-03T19:52:28.769Z,45.40
2018-06-03T19:54:55.085Z,45.39
2018-06-03T19:57:21.472Z,45.51
2018-06-03T19:59:47.860Z,45.58
2018-06-03T20:02:14.245Z,45.45
2018-06-03T20:04:40.645Z,45.41
2018-06-03T20:07:07.055Z,45.51
2018-06-03T20:09:33.437Z,45.51
2018-06-03T20:11:59.777Z,45.49
2018-06-03T20:14:26.110Z,45.35
2018-06-03T20:16:53.629Z,45.37
2018-06-03T20:19:19.984Z,45.40
2018-06-03T20:21:46.429Z,45.53
2018-06-03T20:24:12.783Z,45.43
2018-06-03T20:26:39.155Z,45.41
2018-06-03T20:29:05.506Z,45.29
2018-06-03T20:31:31.882Z,45.27
2018-06-03T20:33:58.197Z,45.27
2018-06-03T20:36:24.595Z,45.29
2018-06-03T20:38:50.968Z,45.38
2018-06-03T20:41:19.029Z,45.24
2018-06-03T20:43:45.352Z,45.23
2018-06-03T20:46:11.741Z,45.25
2018-06-03T20:48:38.160Z,45.22
2018-06-03T20:51:06.002Z,45.20
2018-06-03T20:53:32.367Z,45.16
2018-06-03T20:55:58.741Z,45.16
2018-06-03T20:58:25.380Z,45.16
2018-06-03T21:00:51.756Z,45.17
2018-06-03T21:03:18.119Z,45.28
2018-06-03T21:05:44.481Z,45.21
2018-06-03T21:08:12.505Z,45.14
2018-06-03T21:10:38.980Z,45.18
2018-06-03T21:13:05.300Z,45.24
2018-06-03T21:15:31.650Z,45.24
2018-06-03T21:17:58.167Z,45.25
2018-06-03T21:20:24.504Z,45.19
2018-06-03T21:22:50.884Z,45.28
2018-06-03T21:25:18.072Z,45.22
2018-06-03T21:27:44.703Z,45.23
2018-06-03T21:30:11.074Z,45.17
2018-06-03T21:32:37.413Z,45.23
2018-06-03T21:35:04.017Z,45.14
2018-06-03T21:37:30.426Z,45.10
2018-06-03T21:39:56.948Z,45.19
2018-06-03T21:42:23.476Z,45.26
2018-06-03T21:44:49.837Z,45.18
2018-06-03T21:47:17.465Z,45.32
2018-06-03T21:49:43.847Z,45.16
2018-06-03T21:52:10.505Z,45.29
2018-06-03T21:54:36.852Z,45.31
2018-06-03T21:57:03.206Z,45.36
2018-06-03T21:59:30.009Z,45.23
2018-06-03T22:01:56.453Z,45.19
2018-06-03T22:04:22.785Z,45.31
2018-06-03T22:06:49.614Z,45.32
2018-06-03T22:09:15.975Z,45.32
2018-06-03T22:11:42.324Z,45.34
2018-06-03T22:14:08.784Z,45.25
2018-06-03T22:16:35.278Z,45.20
2018-06-03T22:19:01.675Z,45.31
2018-06-03T22:21:28.016Z,45.45
2018-06-03T22:23:54.341Z,45.33
2018-06-03T22:26:20.744Z,45.28
2018-06-03T22:28:48.305Z,45.25
2018-06-03T22:31:14.748Z,45.27
2018-06-03T22:33:41.100Z,45.41
2018-06-03T22:36:07.474Z,45.43
2018-06-03T22:38:34.031Z,45.34
2018-06-03T22:41:00.449Z,45.38
2018-06-03T22:43:26.942Z,45.23
2018-06-03T22:45:53.331Z,45.40
2018-06-03T22:48:19.667Z,45.34
2018-06-03T22:50:46.364Z,45.37
2018-06-03T22:53:12.696Z,45.34
2018-06-03T22:55:39.061Z,45.27
2018-06-03T22:58:05.395Z,45.36
2018-06-03T23:00:31.878Z,45.33
2018-06-03T23:02:58.688Z,45.29
2018-06-03T23:05:25.078Z,45.32
2018-06-03T23:07:51.409Z,45.26
2018-06-03T23:10:17.737Z,45.23
2018-06-03T23:12:44.099Z,45.29
2018-06-03T23:15:12.249Z,45.39
2018-06-03T23:17:38.575Z,45.33
2018-06-03T23:20:05.047Z,45.23
2018-06-03T23:22:31.432Z,45.16
2018-06-03T23:24:57.804Z,45.17
2018-06-03T23:27:24.152Z,45.19
2018-06-03T23:29:50.563Z,45.24
2018-06-03T23:32:16.945Z,45.37
2018-06-03T23:34:43.260Z,45.17
2018-06-03T23:37:11.228Z,45.28
2018-06-03T23:39:37.569Z,45.03
2018-06-03T23:42:03.896Z,45.16
2018-06-03T23:44:30.323Z,45.18
2018-06-03T23:46:56.783Z,45.15
2018-06-03T23:49:23.103Z,45.03
2018-06-03T23:51:49.507Z,45.07
2018-06-03T23:54:15.830Z,45.00
2018-06-03T23:59:14.720Z,45.16
